Time;durP1;ratioP1;P1;durP2;ratioP2;P2;SDS_P1;SDS_P2;PMS_P1;PMS_P2;Temp;Humidity;BMP_temperature;BMP_pressure;BME280_temperature;BME280_humidity;BME280_pressure;Samples;Min_cycle;Max_cycle;Signal;HPM_P1;HPM_P2
2023/02/14 00:00:12;;;;;;;9.90;4.40;;;;;;;5.21;100.00;100981.77;109339;1253;75571;-83
2023/02/14 00:03:01;;;;;;;8.60;4.30;;;;;;;5.21;100.00;100981.42;109296;1253;67874;-83
2023/02/14 00:05:50;;;;;;;7.90;3.90;;;;;;;5.24;100.00;100980.94;109147;1253;72507;-83
2023/02/14 00:08:39;;;;;;;10.90;5.20;;;;;;;5.23;100.00;100982.52;108992;1254;60848;-83
2023/02/14 00:11:28;;;;;;;9.50;4.60;;;;;;;5.30;100.00;100980.80;109005;1253;60876;-83
2023/02/14 00:17:24;;;;;;;8.30;4.10;;;;;;;5.31;100.00;100971.85;109237;1253;70762;-83
2023/02/14 00:20:13;;;;;;;7.00;4.10;;;;;;;5.32;100.00;100970.17;109087;1256;71453;-83
2023/02/14 00:23:03;;;;;;;8.00;4.50;;;;;;;5.33;100.00;100974.16;109072;1253;59019;-83
2023/02/14 00:25:52;;;;;;;8.50;4.00;;;;;;;5.33;100.00;100965.98;109363;1252;59308;-83
2023/02/14 00:28:41;;;;;;;6.00;3.90;;;;;;;5.37;100.00;100960.08;109125;1253;74124;-82
2023/02/14 00:31:30;;;;;;;8.90;4.20;;;;;;;5.37;100.00;100950.04;109173;1253;68047;-83
2023/02/14 00:34:19;;;;;;;8.90;4.00;;;;;;;5.36;100.00;100947.30;109299;1252;72620;-82
2023/02/14 00:37:10;;;;;;;7.00;3.90;;;;;;;5.42;100.00;100947.67;109333;1253;59430;-83
2023/02/14 00:39:58;;;;;;;6.90;3.60;;;;;;;5.36;100.00;100952.46;109115;1253;59800;-83
2023/02/14 00:42:47;;;;;;;8.90;4.40;;;;;;;5.33;100.00;100944.31;109324;1253;74659;-83
2023/02/14 00:45:36;;;;;;;10.40;3.90;;;;;;;5.36;100.00;100928.45;109344;1253;68396;-83
2023/02/14 00:48:25;;;;;;;7.90;3.90;;;;;;;5.41;100.00;100915.30;109162;1253;71598;-83
2023/02/14 00:51:14;;;;;;;9.60;5.00;;;;;;;5.45;100.00;100924.86;109072;1254;60759;-83
2023/02/14 00:54:03;;;;;;;5.60;3.40;;;;;;;5.47;100.00;100929.20;109176;1253;59495;-83
2023/02/14 00:56:52;;;;;;;6.40;3.40;;;;;;;5.48;100.00;100927.45;109162;1255;74301;-83
2023/02/14 00:59:42;;;;;;;7.50;3.60;;;;;;;5.48;100.00;100928.90;109247;1253;69057;-83
2023/02/14 01:02:31;;;;;;;5.80;3.10;;;;;;;5.43;100.00;100927.65;109157;1254;70791;-83
2023/02/14 01:05:20;;;;;;;7.20;3.50;;;;;;;5.43;100.00;100924.72;109049;1253;60047;-83
2023/02/14 01:08:09;;;;;;;7.00;3.90;;;;;;;5.43;100.00;100921.18;109156;1252;59016;-83
2023/02/14 01:11:18;;;;;;;7.70;3.70;;;;;;;5.39;100.00;100915.90;109288;1252;72975;-83
2023/02/14 01:14:07;;;;;;;6.20;3.80;;;;;;;5.34;100.00;100911.90;109304;1253;67870;-83
2023/02/14 01:16:56;;;;;;;7.50;3.70;;;;;;;5.37;100.00;100922.57;109392;1253;72829;-83
2023/02/14 01:19:45;;;;;;;7.20;3.60;;;;;;;5.40;100.00;100923.61;109381;1252;59055;-83
2023/02/14 01:22:38;;;;;;;5.70;3.70;;;;;;;5.39;100.00;100916.65;109370;1251;61198;-83
2023/02/14 01:25:27;;;;;;;8.10;3.70;;;;;;;5.41;100.00;100907.38;109274;1252;74581;-83
2023/02/14 01:28:16;;;;;;;7.60;3.70;;;;;;;5.38;100.00;100909.30;109351;1252;69936;-83
2023/02/14 01:31:07;;;;;;;10.10;4.20;;;;;;;5.40;100.00;100903.55;109326;1251;74308;-83
2023/02/14 01:33:56;;;;;;;6.20;3.70;;;;;;;5.42;100.00;100902.09;109339;1253;59697;-82
2023/02/14 01:36:44;;;;;;;8.20;3.90;;;;;;;5.40;100.00;100899.18;109172;1253;60749;-83
2023/02/14 01:39:34;;;;;;;7.00;3.20;;;;;;;5.44;100.00;100893.73;109187;1254;74813;-83
2023/02/14 01:42:23;;;;;;;6.20;3.40;;;;;;;5.50;100.00;100893.99;109286;1253;67857;-83
2023/02/14 01:45:19;;;;;;;6.40;3.30;;;;;;;5.49;100.00;100889.25;109257;1253;73939;-83
2023/02/14 01:48:08;;;;;;;4.50;2.90;;;;;;;5.47;100.00;100887.29;109365;1252;59889;-83
2023/02/14 01:50:57;;;;;;;5.60;3.90;;;;;;;5.44;100.00;100879.59;109348;1252;60292;-83
2023/02/14 01:53:47;;;;;;;6.40;3.00;;;;;;;5.44;100.00;100877.59;109340;1253;75849;-83
2023/02/14 01:56:40;;;;;;;7.30;3.80;;;;;;;5.47;100.00;100873.87;109173;1254;69003;-83
2023/02/14 01:59:32;;;;;;;4.90;2.80;;;;;;;5.46;100.00;100876.27;109126;1252;71884;-83
2023/02/14 02:02:24;;;;;;;5.10;3.90;;;;;;;5.51;100.00;100872.71;109226;1252;59265;-83
2023/02/14 02:05:14;;;;;;;6.30;3.10;;;;;;;5.47;100.00;100874.52;109370;1252;59404;-83
2023/02/14 02:08:03;;;;;;;6.40;2.70;;;;;;;5.53;100.00;100872.88;109113;1253;75256;-83
2023/02/14 02:10:52;;;;;;;7.80;3.70;;;;;;;5.65;100.00;100869.38;109346;1253;70056;-83
2023/02/14 02:13:40;;;;;;;6.40;3.30;;;;;;;5.62;100.00;100868.52;109347;1253;72021;-83
2023/02/14 02:16:42;;;;;;;6.60;3.50;;;;;;;5.55;100.00;100859.68;109212;1254;61227;-83
2023/02/14 02:19:40;;;;;;;8.00;3.70;;;;;;;5.55;100.00;100855.30;109261;1252;61195;-83
2023/02/14 02:22:35;;;;;;;7.40;3.40;;;;;;;5.51;100.00;100856.49;109335;1252;74150;-83
2023/02/14 02:25:33;;;;;;;6.10;3.30;;;;;;;5.47;100.00;100855.55;109244;1251;69675;-83
2023/02/14 02:28:58;;;;;;;5.30;3.30;;;;;;;5.47;100.00;100845.30;109365;1255;73699;-83
2023/02/14 02:31:57;;;;;;;8.50;3.10;;;;;;;5.44;100.00;100841.59;109336;1252;60545;-83
2023/02/14 02:35:05;;;;;;;6.00;3.30;;;;;;;5.44;100.00;100837.56;109325;1253;59527;-83
2023/02/14 02:38:33;;;;;;;5.70;2.80;;;;;;;5.46;100.00;100831.05;109208;1254;74972;-83
2023/02/14 02:42:00;;;;;;;6.00;3.50;;;;;;;5.48;100.00;100830.56;109044;1253;68750;-83
2023/02/14 02:45:08;;;;;;;8.00;4.30;;;;;;;5.51;100.00;100831.62;109206;1252;71041;-83
2023/02/14 02:48:08;;;;;;;6.90;4.10;;;;;;;5.51;100.00;100829.45;109289;1254;59140;-83
2023/02/14 02:54:46;;;;;;;8.60;4.50;;;;;;;5.54;100.00;100821.86;109315;1253;73780;-83
2023/02/14 02:57:37;;;;;;;11.90;5.60;;;;;;;5.46;100.00;100814.91;109364;1253;68845;-83
2023/02/14 03:00:26;;;;;;;8.10;4.20;;;;;;;5.44;100.00;100795.89;109210;1254;73197;-83
2023/02/14 03:06:23;;;;;;;6.60;4.00;;;;;;;5.49;100.00;100797.14;109187;1252;59027;-82
2023/02/14 03:09:32;;;;;;;9.60;4.80;;;;;;;5.47;100.00;100785.98;109216;1253;75852;-83
2023/02/14 03:12:39;;;;;;;19.80;7.90;;;;;;;5.46;100.00;100778.42;109243;1254;67555;-83
2023/02/14 03:15:46;;;;;;;37.00;14.30;;;;;;;5.38;100.00;100754.98;109143;1253;73473;-82
2023/02/14 03:18:56;;;;;;;7.60;4.40;;;;;;;5.41;100.00;100759.84;109352;1252;59340;-83
2023/02/14 03:22:17;;;;;;;17.00;9.90;;;;;;;5.41;100.00;100762.44;109257;1253;61668;-83
2023/02/14 03:25:49;;;;;;;19.00;11.40;;;;;;;5.45;100.00;100753.81;108887;1253;74126;-83
2023/02/14 03:28:44;;;;;;;10.20;6.20;;;;;;;5.45;100.00;100750.48;109139;1251;69755;-83
2023/02/14 03:31:35;;;;;;;6.10;3.40;;;;;;;5.49;100.00;100747.64;109249;1254;71231;-83
2023/02/14 03:34:30;;;;;;;8.40;3.70;;;;;;;5.48;100.00;100744.11;109214;1253;59052;-83
2023/02/14 03:37:30;;;;;;;6.90;4.10;;;;;;;5.50;100.00;100740.89;109376;1252;59658;-83
2023/02/14 03:40:24;;;;;;;5.30;3.30;;;;;;;5.52;100.00;100734.36;109038;1254;75626;-83
2023/02/14 03:43:16;;;;;;;8.00;3.90;;;;;;;5.43;100.00;100736.89;109215;1252;66997;-83
2023/02/14 03:46:09;;;;;;;7.40;3.60;;;;;;;5.42;100.00;100762.23;109043;1252;70630;-83
2023/02/14 03:48:59;;;;;;;7.00;3.30;;;;;;;5.45;100.00;100773.20;109306;1253;59916;-83
2023/02/14 03:51:48;;;;;;;6.40;3.80;;;;;;;5.45;100.00;100784.67;109184;1253;59278;-83
2023/02/14 03:54:37;;;;;;;7.90;3.60;;;;;;;5.43;100.00;100785.46;109157;1252;73614;-83
2023/02/14 03:57:29;;;;;;;6.50;3.70;;;;;;;5.43;100.00;100797.29;109206;1254;69695;-83
2023/02/14 04:00:18;;;;;;;6.30;3.70;;;;;;;5.40;100.00;100814.02;109350;1253;73433;-84
2023/02/14 04:03:12;;;;;;;5.40;3.40;;;;;;;5.38;100.00;100818.52;109317;1252;62059;-82
2023/02/14 04:06:02;;;;;;;6.90;3.50;;;;;;;5.36;100.00;100822.48;109190;1252;61451;-83
2023/02/14 04:08:51;;;;;;;6.90;4.00;;;;;;;5.31;100.00;100825.35;109223;1256;75700;-83
2023/02/14 04:11:40;;;;;;;6.70;3.40;;;;;;;5.29;100.00;100824.65;109328;1252;69295;-83
2023/02/14 04:14:31;;;;;;;8.00;3.50;;;;;;;5.13;100.00;100826.02;109241;1251;73331;-83
2023/02/14 04:20:29;;;;;;;6.10;3.80;;;;;;;5.01;100.00;100836.98;109151;1253;60796;-83
2023/02/14 04:23:19;;;;;;;6.30;3.50;;;;;;;5.00;100.00;100836.76;109244;1254;73536;-84
2023/02/14 04:26:08;;;;;;;5.70;3.50;;;;;;;4.98;100.00;100837.51;109419;1251;69160;-84
2023/02/14 04:28:58;;;;;;;6.80;3.40;;;;;;;4.97;100.00;100839.77;109346;1251;71395;-84
2023/02/14 04:31:46;;;;;;;5.70;3.30;;;;;;;4.99;100.00;100828.27;109296;1251;60654;-83
2023/02/14 04:34:36;;;;;;;9.90;4.10;;;;;;;4.95;100.00;100819.00;109342;1256;61221;-84
2023/02/14 04:37:25;;;;;;;6.70;3.80;;;;;;;4.91;100.00;100818.54;109369;1251;76016;-83
2023/02/14 04:40:16;;;;;;;8.60;3.90;;;;;;;4.94;100.00;100817.84;109336;1253;69522;-83
2023/02/14 04:43:07;;;;;;;7.80;5.10;;;;;;;4.98;100.00;100822.38;109281;1253;72799;-83
2023/02/14 04:45:55;;;;;;;8.60;4.60;;;;;;;4.93;100.00;100830.11;109379;1253;61351;-84
2023/02/14 04:48:44;;;;;;;7.50;3.60;;;;;;;4.93;100.00;100830.87;109331;1252;61359;-83
2023/02/14 04:51:34;;;;;;;7.80;4.10;;;;;;;5.02;100.00;100830.19;109245;1254;74911;-83
2023/02/14 04:54:23;;;;;;;9.50;4.60;;;;;;;5.09;100.00;100829.27;109361;1252;66681;-83
2023/02/14 04:57:12;;;;;;;6.20;3.30;;;;;;;5.13;100.00;100824.33;109334;1251;72660;-84
2023/02/14 05:00:01;;;;;;;5.90;3.40;;;;;;;5.09;100.00;100826.89;109211;1252;59307;-84
2023/02/14 05:02:51;;;;;;;7.90;3.40;;;;;;;5.15;100.00;100835.20;109319;1252;60482;-83
2023/02/14 05:05:40;;;;;;;7.50;3.90;;;;;;;5.11;100.00;100839.82;109311;1252;75590;-84
2023/02/14 05:08:29;;;;;;;14.40;5.00;;;;;;;5.12;100.00;100839.59;109324;1253;69987;-84
2023/02/14 05:11:18;;;;;;;12.80;5.40;;;;;;;5.13;100.00;100834.95;109367;1251;71145;-83
2023/02/14 05:14:07;;;;;;;6.30;2.80;;;;;;;5.12;100.00;100841.10;109346;1252;61903;-84
2023/02/14 05:16:56;;;;;;;6.60;3.20;;;;;;;5.15;100.00;100839.93;109111;1252;61716;-84
2023/02/14 05:19:45;;;;;;;6.40;3.00;;;;;;;5.14;100.00;100844.52;109175;1252;75013;-83
2023/02/14 05:22:34;;;;;;;5.90;3.30;;;;;;;5.19;100.00;100846.58;109051;1254;67548;-84
2023/02/14 05:25:23;;;;;;;5.60;3.30;;;;;;;5.12;100.00;100844.84;109329;1251;72611;-85
2023/02/14 05:28:13;;;;;;;5.90;3.10;;;;;;;5.17;100.00;100845.02;109258;1252;60011;-84
2023/02/14 05:31:02;;;;;;;6.80;3.60;;;;;;;5.19;100.00;100846.52;109321;1253;59581;-84
2023/02/14 05:33:51;;;;;;;5.90;3.00;;;;;;;5.14;100.00;100850.73;109263;1253;75310;-84
2023/02/14 05:36:42;;;;;;;6.50;2.40;;;;;;;5.07;100.00;100852.19;109281;1254;70165;-84
2023/02/14 05:39:32;;;;;;;7.50;3.50;;;;;;;5.11;100.00;100852.23;109362;1253;73312;-83
2023/02/14 05:42:23;;;;;;;5.70;3.30;;;;;;;5.14;100.00;100861.10;109335;1251;60527;-83
2023/02/14 05:45:12;;;;;;;4.30;2.30;;;;;;;5.19;100.00;100864.29;109317;1252;62191;-83
2023/02/14 05:48:01;;;;;;;4.60;3.00;;;;;;;5.22;100.00;100866.48;109330;1254;72566;-83
2023/02/14 05:50:49;;;;;;;6.10;3.50;;;;;;;5.20;100.00;100868.23;109332;1254;69045;-82
2023/02/14 05:53:39;;;;;;;6.70;3.00;;;;;;;5.19;100.00;100869.61;109315;1251;72361;-83
2023/02/14 05:56:28;;;;;;;3.40;2.30;;;;;;;5.16;100.00;100866.45;109281;1253;60054;-83
2023/02/14 05:59:17;;;;;;;5.10;2.60;;;;;;;5.18;100.00;100866.88;109346;1253;61708;-83
2023/02/14 06:02:05;;;;;;;7.20;3.00;;;;;;;5.24;100.00;100864.96;109287;1254;74658;-83
2023/02/14 06:04:55;;;;;;;5.50;3.00;;;;;;;5.17;100.00;100866.52;109339;1253;69050;-84
2023/02/14 06:07:49;;;;;;;4.40;2.80;;;;;;;5.24;100.00;100869.89;109244;1252;73581;-84
2023/02/14 06:10:38;;;;;;;5.30;3.30;;;;;;;5.25;100.00;100870.94;109351;1252;60164;-84
2023/02/14 06:13:28;;;;;;;5.10;3.00;;;;;;;5.25;100.00;100874.41;109433;1251;59057;-84
2023/02/14 06:16:18;;;;;;;5.10;2.90;;;;;;;5.28;100.00;100866.94;109308;1255;75996;-84
2023/02/14 06:19:10;;;;;;;3.80;2.20;;;;;;;5.32;100.00;100868.52;109324;1253;66945;-84
2023/02/14 06:21:59;;;;;;;7.30;2.80;;;;;;;5.35;100.00;100868.77;109310;1251;70404;-84
2023/02/14 06:24:49;;;;;;;6.50;2.80;;;;;;;5.32;100.00;100866.79;109357;1252;61121;-87
2023/02/14 06:27:39;;;;;;;4.60;2.60;;;;;;;5.41;100.00;100871.10;109364;1252;60291;-87
2023/02/14 06:30:28;;;;;;;4.00;2.20;;;;;;;5.41;100.00;100867.38;109382;1251;75975;-87
2023/02/14 06:33:18;;;;;;;4.30;2.70;;;;;;;5.37;100.00;100876.23;109380;1252;68088;-87
2023/02/14 06:36:07;;;;;;;2.80;2.10;;;;;;;5.42;100.00;100879.58;109363;1251;72800;-87
2023/02/14 06:38:56;;;;;;;3.60;2.70;;;;;;;5.42;100.00;100885.45;109361;1254;60376;-87
2023/02/14 06:41:44;;;;;;;6.60;2.80;;;;;;;5.43;100.00;100884.31;109372;1251;59616;-87
2023/02/14 06:44:33;;;;;;;8.20;3.30;;;;;;;5.53;100.00;100891.35;109392;1251;76720;-89
2023/02/14 06:47:22;;;;;;;5.90;2.80;;;;;;;5.49;100.00;100894.17;109378;1251;68051;-88
2023/02/14 06:50:10;;;;;;;4.60;2.90;;;;;;;5.49;100.00;100894.94;109368;1251;73083;-88
2023/02/14 06:52:59;;;;;;;5.70;2.40;;;;;;;5.51;100.00;100887.51;109370;1251;60335;-86
2023/02/14 06:55:48;;;;;;;4.60;2.70;;;;;;;5.52;100.00;100886.78;109392;1254;61593;-87
2023/02/14 06:58:38;;;;;;;4.60;2.90;;;;;;;5.57;100.00;100889.29;109370;1252;74840;-87
2023/02/14 07:01:27;;;;;;;6.40;3.10;;;;;;;5.68;100.00;100880.88;109270;1250;69608;-88
2023/02/14 07:04:16;;;;;;;4.20;2.50;;;;;;;5.77;100.00;100883.16;109306;1253;73390;-87
2023/02/14 07:07:05;;;;;;;4.00;2.60;;;;;;;5.85;100.00;100891.41;109394;1251;59836;-87
2023/02/14 07:09:55;;;;;;;4.60;3.10;;;;;;;5.96;100.00;100891.61;109399;1251;59052;-87
2023/02/14 07:12:44;;;;;;;3.60;2.40;;;;;;;5.98;100.00;100902.50;109337;1252;75873;-87
2023/02/14 07:15:32;;;;;;;3.90;2.10;;;;;;;6.05;100.00;100902.63;109349;1254;69077;-87
2023/02/14 07:18:21;;;;;;;3.90;2.10;;;;;;;6.07;100.00;100902.63;109158;1254;73370;-88
2023/02/14 07:21:10;;;;;;;3.70;2.30;;;;;;;6.10;100.00;100900.40;109334;1253;62718;-87
2023/02/14 07:23:59;;;;;;;7.50;2.80;;;;;;;6.16;100.00;100906.08;109349;1252;61040;-87
2023/02/14 07:26:47;;;;;;;2.70;1.90;;;;;;;6.18;100.00;100903.13;109385;1252;74430;-86
2023/02/14 07:29:36;;;;;;;4.80;2.70;;;;;;;6.16;100.00;100909.22;109280;1254;69935;-86
2023/02/14 07:32:25;;;;;;;4.80;2.30;;;;;;;6.21;100.00;100912.21;109354;1253;73592;-87
2023/02/14 07:35:14;;;;;;;3.80;2.40;;;;;;;6.23;100.00;100909.41;109306;1252;59897;-87
2023/02/14 07:38:03;;;;;;;3.60;2.30;;;;;;;6.29;100.00;100911.29;109319;1253;60779;-86
2023/02/14 07:40:52;;;;;;;2.60;1.70;;;;;;;6.26;100.00;100918.11;109353;1254;72879;-86
2023/02/14 07:43:41;;;;;;;3.80;2.10;;;;;;;6.31;100.00;100918.66;109317;1253;68474;-86
2023/02/14 07:46:30;;;;;;;5.20;2.60;;;;;;;6.28;100.00;100917.25;109310;1254;73147;-87
2023/02/14 07:49:18;;;;;;;1.80;1.70;;;;;;;6.30;100.00;100917.44;109337;1252;60290;-87
2023/02/14 07:52:07;;;;;;;2.70;1.80;;;;;;;6.35;100.00;100918.64;109261;1252;59211;-87
2023/02/14 07:54:56;;;;;;;2.70;1.80;;;;;;;6.43;100.00;100908.98;109297;1254;76477;-88
2023/02/14 07:57:48;;;;;;;4.00;1.80;;;;;;;6.52;100.00;100903.98;109356;1254;69024;-86
2023/02/14 08:00:36;;;;;;;2.70;1.60;;;;;;;6.67;100.00;100903.45;109315;1253;71985;-86
2023/02/14 08:03:26;;;;;;;3.10;1.70;;;;;;;6.78;100.00;100904.42;109288;1254;60467;-87
2023/02/14 08:06:16;;;;;;;2.50;2.00;;;;;;;6.81;100.00;100904.43;109333;1254;61542;-86
2023/02/14 08:09:05;;;;;;;4.70;1.80;;;;;;;6.85;100.00;100903.10;109313;1253;74626;-86
2023/02/14 08:18:12;;;;;;;5.50;1.90;;;;;;;6.85;100.00;100906.63;109216;1253;60844;-86
2023/02/14 08:21:00;;;;;;;3.90;1.90;;;;;;;6.87;100.00;100903.63;109193;1253;59330;-85
2023/02/14 08:23:51;;;;;;;5.80;2.70;;;;;;;6.90;100.00;100904.17;108971;1253;232009;-87
2023/02/14 08:26:39;;;;;;;2.90;2.00;;;;;;;6.97;100.00;100906.30;109353;1256;69937;-86
2023/02/14 08:29:28;;;;;;;4.90;2.30;;;;;;;6.96;100.00;100912.14;109368;1252;73682;-86
2023/02/14 08:32:19;;;;;;;6.00;3.10;;;;;;;6.97;100.00;100910.60;109347;1253;61575;-87
2023/02/14 08:35:08;;;;;;;4.30;2.60;;;;;;;6.98;100.00;100911.59;109388;1253;61384;-87
2023/02/14 08:37:58;;;;;;;5.40;2.90;;;;;;;7.04;100.00;100912.62;109362;1252;76257;-87
2023/02/14 08:40:46;;;;;;;4.40;3.00;;;;;;;7.05;100.00;100915.98;109338;1256;70143;-88
2023/02/14 08:43:35;;;;;;;3.60;2.20;;;;;;;7.05;100.00;100915.80;109351;1253;73618;-87
2023/02/14 08:46:25;;;;;;;4.30;2.10;;;;;;;7.15;100.00;100916.98;109324;1253;59069;-87
2023/02/14 08:49:13;;;;;;;4.50;1.90;;;;;;;7.19;100.00;100922.67;109380;1253;58968;-87
2023/02/14 08:52:02;;;;;;;4.80;1.70;;;;;;;7.32;100.00;100916.04;109271;1253;75094;-86
2023/02/14 08:54:51;;;;;;;4.50;1.70;;;;;;;7.46;100.00;100915.78;109388;1254;69060;-85
2023/02/14 08:57:41;;;;;;;2.50;1.60;;;;;;;7.41;100.00;100915.48;109311;1254;74518;-88
2023/02/14 09:00:31;;;;;;;3.00;1.50;;;;;;;7.37;100.00;100919.00;109261;1253;59265;-86
2023/02/14 09:03:22;;;;;;;3.50;1.40;;;;;;;7.34;100.00;100922.05;109311;1252;60733;-87
2023/02/14 09:06:13;;;;;;;4.60;1.50;;;;;;;7.43;100.00;100924.23;109318;1256;74386;-87
2023/02/14 09:09:02;;;;;;;5.50;2.30;;;;;;;7.42;100.00;100923.67;109349;1254;68733;-87
2023/02/14 09:11:51;;;;;;;3.00;1.60;;;;;;;7.40;100.00;100920.30;109294;1253;71204;-86
2023/02/14 09:14:44;;;;;;;3.10;1.90;;;;;;;7.30;100.00;100933.41;109136;1253;60477;-86
2023/02/14 09:17:33;;;;;;;2.80;1.70;;;;;;;7.33;100.00;100928.63;109191;1254;58845;-86
2023/02/14 09:20:22;;;;;;;3.70;1.50;;;;;;;7.30;100.00;100936.67;109368;1254;74879;-86
2023/02/14 09:23:11;;;;;;;2.60;1.60;;;;;;;7.31;100.00;100930.33;109326;1254;69700;-86
2023/02/14 09:26:01;;;;;;;2.80;1.90;;;;;;;7.33;100.00;100933.41;109288;1253;71665;-86
2023/02/14 09:28:49;;;;;;;5.60;1.70;;;;;;;7.36;100.00;100939.60;109182;1253;59993;-86
2023/02/14 09:31:38;;;;;;;3.10;1.70;;;;;;;7.33;100.00;100937.05;109202;1253;61577;-86
2023/02/14 09:34:28;;;;;;;4.90;1.80;;;;;;;7.37;100.00;100928.63;109306;1252;74878;-86
2023/02/14 09:40:31;;;;;;;5.00;1.50;;;;;;;7.41;100.00;100928.32;109282;1254;74211;-87
2023/02/14 09:43:35;;;;;;;2.20;1.70;;;;;;;7.42;100.00;100931.16;109128;1252;59132;-86
2023/02/14 09:46:24;;;;;;;3.30;1.90;;;;;;;7.42;100.00;100929.65;109333;1254;61070;-86
2023/02/14 09:49:14;;;;;;;1.90;1.50;;;;;;;7.39;100.00;100929.52;109169;1254;72797;-86
2023/02/14 09:52:04;;;;;;;4.70;1.70;;;;;;;7.33;100.00;100930.09;109133;1253;66854;-86
2023/02/14 09:54:56;;;;;;;3.20;1.30;;;;;;;7.34;100.00;100934.13;109255;1253;73050;-86
2023/02/14 09:58:07;;;;;;;3.10;1.50;;;;;;;7.22;100.00;100938.77;109255;1256;60769;-86
2023/02/14 10:01:17;;;;;;;2.00;1.20;;;;;;;7.18;100.00;100935.11;109222;1253;59149;-86
2023/02/14 10:04:15;;;;;;;1.40;1.30;;;;;;;7.14;100.00;100931.55;109275;1253;73976;-87
2023/02/14 10:07:08;;;;;;;5.00;1.60;;;;;;;7.10;100.00;100930.02;109301;1253;68498;-86
2023/02/14 10:10:19;;;;;;;3.00;1.60;;;;;;;7.10;100.00;100926.60;109321;1253;72981;-86
2023/02/14 10:13:31;;;;;;;4.40;1.90;;;;;;;7.04;100.00;100920.34;109365;1253;60093;-86
2023/02/14 10:16:38;;;;;;;5.90;2.20;;;;;;;6.97;100.00;100922.43;109204;1257;59511;-86
2023/02/14 10:19:32;;;;;;;3.60;1.50;;;;;;;7.00;100.00;100912.65;109100;1253;73272;-86
2023/02/14 10:22:41;;;;;;;2.70;1.30;;;;;;;6.97;100.00;100908.80;109094;1256;70606;-86
2023/02/14 10:25:39;;;;;;;4.40;2.00;;;;;;;6.96;100.00;100908.61;109363;1254;73646;-87
2023/02/14 10:28:34;;;;;;;2.80;2.10;;;;;;;6.99;100.00;100900.58;109139;1253;59393;-86
2023/02/14 10:31:35;;;;;;;2.40;1.30;;;;;;;7.07;100.00;100898.20;109082;1254;60022;-86
2023/02/14 10:34:48;;;;;;;4.60;1.30;;;;;;;7.13;100.00;100895.94;109182;1254;75712;-85
2023/02/14 10:38:16;;;;;;;3.70;1.20;;;;;;;7.12;100.00;100895.65;109100;1256;68525;-86
2023/02/14 10:41:29;;;;;;;2.50;1.70;;;;;;;7.07;100.00;100897.89;109215;1254;70689;-86
2023/02/14 10:44:25;;;;;;;2.10;1.40;;;;;;;7.00;100.00;100894.23;109329;1256;59597;-85
2023/02/14 10:47:42;;;;;;;2.70;1.50;;;;;;;7.00;100.00;100899.52;109134;1258;61325;-86
2023/02/14 10:50:38;;;;;;;3.50;1.30;;;;;;;7.08;100.00;100898.13;109322;1254;74971;-87
2023/02/14 10:54:05;;;;;;;2.00;1.20;;;;;;;7.05;100.00;100900.46;109218;1254;67311;-86
2023/02/14 10:57:02;;;;;;;1.70;0.70;;;;;;;6.95;100.00;100900.34;109343;1253;72721;-86
2023/02/14 10:59:56;;;;;;;4.60;1.50;;;;;;;6.90;100.00;100900.59;109151;1252;60361;-86
2023/02/14 11:02:46;;;;;;;2.80;1.90;;;;;;;6.87;100.00;100902.38;109336;1253;60015;-86
2023/02/14 11:05:42;;;;;;;4.40;1.20;;;;;;;6.88;100.00;100901.47;109192;1254;74538;-87
2023/02/14 11:08:36;;;;;;;3.30;1.20;;;;;;;6.82;100.00;100905.21;109142;1256;67661;-85
2023/02/14 11:11:30;;;;;;;2.60;1.10;;;;;;;6.85;100.00;100904.85;109147;1254;71671;-86
2023/02/14 11:14:23;;;;;;;2.70;0.90;;;;;;;6.83;100.00;100909.16;109153;1254;59900;-86
2023/02/14 11:17:30;;;;;;;1.80;0.80;;;;;;;6.85;100.00;100903.27;109272;1254;59653;-87
2023/02/14 11:20:22;;;;;;;1.70;1.00;;;;;;;6.86;100.00;100895.84;109087;1253;73797;-87
2023/02/14 11:23:20;;;;;;;3.40;1.10;;;;;;;6.78;100.00;100890.42;109102;1252;68907;-87
2023/02/14 11:26:29;;;;;;;2.30;0.80;;;;;;;6.74;100.00;100889.64;109307;1254;73626;-86
2023/02/14 11:29:29;;;;;;;1.10;0.80;;;;;;;6.74;100.00;100893.18;109149;1253;59366;-86
2023/02/14 11:32:23;;;;;;;1.50;1.10;;;;;;;6.76;100.00;100887.40;109181;1254;59050;-86
2023/02/14 11:35:18;;;;;;;3.20;1.30;;;;;;;6.77;100.00;100885.02;109317;1254;75778;-86
2023/02/14 11:38:25;;;;;;;4.40;1.00;;;;;;;6.73;100.00;100887.98;109062;1254;69380;-86
2023/02/14 11:41:14;;;;;;;1.60;1.00;;;;;;;6.71;100.00;100896.21;109314;1254;71635;-86
2023/02/14 11:44:21;;;;;;;1.20;0.60;;;;;;;6.71;100.00;100891.27;109185;1255;59358;-86
2023/02/14 11:47:25;;;;;;;2.30;1.10;;;;;;;6.71;100.00;100891.66;109259;1254;61522;-86
2023/02/14 11:50:22;;;;;;;1.70;1.20;;;;;;;6.62;100.00;100891.80;109241;1253;74892;-85
2023/02/14 11:53:11;;;;;;;4.10;1.20;;;;;;;6.56;100.00;100907.44;109365;1254;70840;-86
2023/02/14 11:56:00;;;;;;;4.80;1.40;;;;;;;6.55;100.00;100913.39;109206;1254;72827;-88
2023/02/14 11:59:04;;;;;;;3.10;1.60;;;;;;;6.38;100.00;100915.50;109325;1252;62895;-87
2023/02/14 12:01:53;;;;;;;6.20;1.70;;;;;;;6.20;100.00;100915.06;109332;1254;61884;-87
2023/02/14 12:04:43;;;;;;;2.10;1.90;;;;;;;6.10;100.00;100912.55;109305;1254;74584;-86
2023/02/14 12:07:36;;;;;;;5.70;1.50;;;;;;;6.07;100.00;100900.13;109273;1254;69282;-85
2023/02/14 12:10:29;;;;;;;2.20;1.30;;;;;;;6.09;100.00;100909.89;109208;1256;71434;-86
2023/02/14 12:13:20;;;;;;;4.30;1.70;;;;;;;6.10;100.00;100910.72;109095;1254;59479;-86
2023/02/14 12:16:16;;;;;;;2.90;1.70;;;;;;;6.05;100.00;100907.90;109267;1253;60511;-86
2023/02/14 12:19:07;;;;;;;2.30;1.10;;;;;;;5.97;100.00;100908.91;109223;1252;75036;-87
2023/02/14 12:22:02;;;;;;;5.10;2.00;;;;;;;5.91;100.00;100904.20;109179;1254;70799;-87
2023/02/14 12:24:57;;;;;;;4.20;2.40;;;;;;;6.00;100.00;100909.05;109022;1254;70535;-87
2023/02/14 12:28:24;;;;;;;3.10;1.60;;;;;;;6.02;100.00;100908.98;109330;1254;59869;-87
2023/02/14 12:31:14;;;;;;;5.30;2.70;;;;;;;5.95;100.00;100908.27;108720;1263;59403;-86
2023/02/14 12:34:03;;;;;;;5.50;3.00;;;;;;;5.90;100.00;100904.52;109154;1254;74592;-86
2023/02/14 12:37:10;;;;;;;5.80;2.00;;;;;;;5.92;100.00;100900.48;109207;1254;69774;-86
2023/02/14 12:40:22;;;;;;;5.70;2.50;;;;;;;5.92;100.00;100900.05;109351;1253;73679;-86
2023/02/14 12:43:38;;;;;;;3.20;2.00;;;;;;;5.97;100.00;100900.20;109367;1253;61602;-86
2023/02/14 12:46:50;;;;;;;4.80;2.10;;;;;;;5.99;100.00;100904.69;109340;1254;60355;-86
2023/02/14 12:49:56;;;;;;;4.90;2.30;;;;;;;6.05;100.00;100904.70;109351;1253;75264;-86
2023/02/14 12:52:57;;;;;;;1.90;1.30;;;;;;;6.09;100.00;100903.43;109357;1254;69350;-86
2023/02/14 12:56:11;;;;;;;2.30;1.30;;;;;;;6.08;100.00;100903.83;109359;1254;73054;-85
2023/02/14 12:59:04;;;;;;;4.40;1.40;;;;;;;6.10;100.00;100908.00;109270;1254;60314;-83
2023/02/14 13:02:14;;;;;;;3.80;1.70;;;;;;;6.12;100.00;100909.13;109272;1253;60358;-83
2023/02/14 13:05:27;;;;;;;4.20;1.40;;;;;;;6.18;100.00;100911.60;109314;1253;74102;-83
2023/02/14 13:08:28;;;;;;;2.50;1.70;;;;;;;6.17;100.00;100913.38;109224;1257;69773;-83
2023/02/14 13:11:41;;;;;;;2.20;1.20;;;;;;;6.11;100.00;100915.79;109304;1253;73385;-83
2023/02/14 13:14:52;;;;;;;4.00;1.40;;;;;;;6.17;100.00;100918.14;109113;1253;62185;-83
2023/02/14 13:17:55;;;;;;;4.90;2.00;;;;;;;6.11;100.00;100921.10;109369;1251;60353;-83
2023/02/14 13:20:50;;;;;;;4.40;1.70;;;;;;;6.06;100.00;100922.14;109091;1253;73645;-83
2023/02/14 13:23:44;;;;;;;3.70;1.40;;;;;;;6.10;100.00;100917.60;109373;1251;69113;-83
2023/02/14 13:26:37;;;;;;;2.40;1.20;;;;;;;6.14;100.00;100923.77;109256;1254;71810;-83
2023/02/14 13:29:27;;;;;;;2.10;1.00;;;;;;;6.11;100.00;100927.52;109233;1253;62594;-82
2023/02/14 13:32:19;;;;;;;2.70;1.50;;;;;;;6.15;100.00;100930.69;109248;1254;59771;-83
2023/02/14 13:35:16;;;;;;;5.10;1.40;;;;;;;6.14;100.00;100931.10;109148;1254;75031;-83
2023/02/14 13:38:07;;;;;;;3.60;1.40;;;;;;;6.15;100.00;100929.86;109221;1253;69951;-83
2023/02/14 13:40:56;;;;;;;1.80;1.20;;;;;;;6.12;100.00;100933.05;109325;1254;71891;-83